createdAt,value
2018-08-30T00:01:12.834Z,21.20
2018-08-30T00:03:44.554Z,21.10
2018-08-30T00:06:16.714Z,21.10
2018-08-30T00:08:48.181Z,21.10
2018-08-30T00:11:20.098Z,21.10
2018-08-30T00:13:52.014Z,21.10
2018-08-30T00:16:24.454Z,21.20
2018-08-30T00:18:56.334Z,21.20
2018-08-30T00:21:28.995Z,21.00
2018-08-30T00:24:01.253Z,21.00
2018-08-30T00:26:32.655Z,21.00
2018-08-30T00:29:05.114Z,21.00
2018-08-30T00:31:36.816Z,21.00
2018-08-30T00:34:08.414Z,20.90
2018-08-30T00:36:39.514Z,21.00
2018-08-30T00:39:12.734Z,20.90
2018-08-30T00:41:44.793Z,20.90
2018-08-30T00:44:16.514Z,20.90
2018-08-30T00:46:49.514Z,20.90
2018-08-30T00:49:21.174Z,20.90
2018-08-30T00:51:53.453Z,21.00
2018-08-30T00:54:25.953Z,20.90
2018-08-30T00:56:57.594Z,21.00
2018-08-30T00:59:29.654Z,21.00
2018-08-30T01:02:01.554Z,21.00
2018-08-30T01:04:34.074Z,20.90
2018-08-30T01:07:05.534Z,20.80
2018-08-30T01:09:37.653Z,20.80
2018-08-30T01:12:10.134Z,20.80
2018-08-30T01:14:42.365Z,20.80
2018-08-30T01:17:14.273Z,20.70
2018-08-30T01:19:46.353Z,20.80
2018-08-30T01:22:18.154Z,20.70
2018-08-30T01:24:49.773Z,20.60
2018-08-30T01:27:21.914Z,20.70
2018-08-30T01:29:54.074Z,20.70
2018-08-30T01:32:24.973Z,20.70
2018-08-30T01:34:57.434Z,20.60
2018-08-30T01:37:28.334Z,20.70
2018-08-30T01:40:00.475Z,20.70
2018-08-30T01:42:32.314Z,20.70
2018-08-30T01:45:04.816Z,20.70
2018-08-30T01:47:35.735Z,20.70
2018-08-30T01:50:07.374Z,20.70
2018-08-30T01:52:39.094Z,20.70
2018-08-30T01:55:10.773Z,20.80
2018-08-30T01:57:42.213Z,20.70
2018-08-30T02:00:14.093Z,20.80
2018-08-30T02:02:44.954Z,20.70
2018-08-30T02:05:17.214Z,20.50
2018-08-30T02:07:48.893Z,20.60
2018-08-30T02:10:21.193Z,20.60
2018-08-30T02:12:52.637Z,20.60
2018-08-30T02:15:24.615Z,20.50
2018-08-30T02:17:56.473Z,20.50
2018-08-30T02:20:27.833Z,20.60
2018-08-30T02:22:59.454Z,20.60
2018-08-30T02:25:31.595Z,20.60
2018-08-30T02:28:03.033Z,20.70
2018-08-30T02:30:35.494Z,20.80
2018-08-30T02:33:07.034Z,20.80
2018-08-30T02:35:39.414Z,20.80
2018-08-30T02:38:11.054Z,20.80
2018-08-30T02:40:43.213Z,20.80
2018-08-30T02:43:14.156Z,20.80
2018-08-30T02:45:46.894Z,20.80
2018-08-30T02:48:18.655Z,20.80
2018-08-30T02:50:50.796Z,20.80
2018-08-30T02:53:23.514Z,20.80
2018-08-30T02:55:53.813Z,20.70
2018-08-30T02:58:25.054Z,20.70
2018-08-30T03:00:56.674Z,20.80
2018-08-30T03:03:28.498Z,20.80
2018-08-30T03:06:00.834Z,20.70
2018-08-30T03:08:32.894Z,20.70
2018-08-30T03:11:04.953Z,20.70
2018-08-30T03:13:36.753Z,20.70
2018-08-30T03:16:08.654Z,20.70
2018-08-30T03:18:40.174Z,20.70
2018-08-30T03:21:12.013Z,20.70
2018-08-30T03:23:43.659Z,20.70
2018-08-30T03:26:15.794Z,20.70
2018-08-30T03:28:48.473Z,20.60
2018-08-30T03:31:20.245Z,20.70
2018-08-30T03:33:51.834Z,20.70
2018-08-30T03:36:23.793Z,20.80
2018-08-30T03:38:55.516Z,20.70
2018-08-30T03:41:27.615Z,20.80
2018-08-30T03:43:58.833Z,20.90
2018-08-30T03:46:30.533Z,20.90
2018-08-30T03:49:02.553Z,20.90
2018-08-30T03:51:34.714Z,20.90
2018-08-30T03:54:06.575Z,20.90
2018-08-30T03:56:38.754Z,20.90
2018-08-30T03:59:11.095Z,20.90
2018-08-30T04:01:43.533Z,20.90
2018-08-30T04:04:14.874Z,20.90
2018-08-30T04:06:46.333Z,21.00
2018-08-30T04:09:18.134Z,21.00
2018-08-30T04:11:50.094Z,21.00
2018-08-30T04:14:21.754Z,20.90
2018-08-30T04:16:53.494Z,20.80
2018-08-30T04:19:25.334Z,20.80
2018-08-30T04:21:57.354Z,20.80
2018-08-30T04:24:29.434Z,20.80
2018-08-30T04:27:00.683Z,20.80
2018-08-30T04:29:32.533Z,20.80
2018-08-30T04:32:04.634Z,20.80
2018-08-30T04:34:35.913Z,20.80
2018-08-30T04:37:07.214Z,20.80
2018-08-30T04:39:38.653Z,20.70
2018-08-30T04:42:10.889Z,20.70
2018-08-30T04:44:42.093Z,20.70
2018-08-30T04:47:14.013Z,20.70
2018-08-30T04:49:45.476Z,20.60
2018-08-30T04:52:18.333Z,20.60
2018-08-30T04:54:50.213Z,20.60
2018-08-30T04:57:22.777Z,20.50
2018-08-30T04:59:54.016Z,20.40
2018-08-30T05:02:25.633Z,20.40
2018-08-30T05:04:57.413Z,20.40
2018-08-30T05:07:29.013Z,20.50
2018-08-30T05:10:03.034Z,20.50
2018-08-30T05:12:34.713Z,20.50
2018-08-30T05:22:11.899Z,20.40
2018-08-30T05:24:44.034Z,20.20
2018-08-30T05:27:15.354Z,20.10
2018-08-30T05:29:47.632Z,20.20
2018-08-30T05:32:19.214Z,20.30
2018-08-30T05:34:51.854Z,20.40
2018-08-30T05:37:23.574Z,20.40
2018-08-30T05:39:54.874Z,20.40
2018-08-30T05:42:26.614Z,20.40
2018-08-30T05:44:58.474Z,20.40
2018-08-30T05:47:30.214Z,20.40
2018-08-30T05:50:02.115Z,20.40
2018-08-30T05:52:34.589Z,20.40
2018-08-30T05:55:06.393Z,20.50
2018-08-30T05:57:38.274Z,20.50
2018-08-30T06:00:09.854Z,20.50
2018-08-30T06:02:42.214Z,20.60
2018-08-30T06:05:13.795Z,20.70
2018-08-30T06:07:45.294Z,20.70
2018-08-30T06:10:16.554Z,20.70
2018-08-30T06:12:48.334Z,20.80
2018-08-30T06:15:20.814Z,20.80
2018-08-30T06:17:52.295Z,20.90
2018-08-30T06:20:24.154Z,20.90
2018-08-30T06:22:55.136Z,20.90
2018-08-30T06:25:27.014Z,21.00
2018-08-30T06:27:59.413Z,21.00
2018-08-30T06:30:30.395Z,21.00
2018-08-30T06:33:03.096Z,21.00
2018-08-30T06:35:34.614Z,21.00
2018-08-30T06:38:06.459Z,21.00
2018-08-30T06:40:38.054Z,21.00
2018-08-30T06:43:10.574Z,21.00
2018-08-30T06:45:42.854Z,21.00
2018-08-30T06:48:14.273Z,21.00
2018-08-30T06:50:46.076Z,21.00
2018-08-30T06:53:18.234Z,21.10
2018-08-30T06:55:50.433Z,21.10
2018-08-30T06:58:22.447Z,21.10
2018-08-30T07:00:54.575Z,21.10
2018-08-30T07:03:26.364Z,21.20
2018-08-30T07:05:58.450Z,21.10
2018-08-30T07:08:30.350Z,21.20
2018-08-30T07:11:02.217Z,21.10
2018-08-30T07:13:37.757Z,21.20
2018-08-30T07:16:09.577Z,21.10
2018-08-30T07:18:40.756Z,21.10
2018-08-30T07:21:12.819Z,21.10
2018-08-30T07:23:45.059Z,21.10
2018-08-30T07:26:16.759Z,20.90
2018-08-30T07:28:48.964Z,20.90
2018-08-30T07:31:21.382Z,20.70
2018-08-30T07:33:52.956Z,20.50
2018-08-30T07:36:24.499Z,20.50
2018-08-30T07:38:56.305Z,20.50
2018-08-30T07:41:28.306Z,20.40
2018-08-30T07:44:00.459Z,20.40
2018-08-30T07:46:32.125Z,20.40
2018-08-30T07:49:03.545Z,20.40
2018-08-30T07:51:36.306Z,20.40
2018-08-30T07:54:08.102Z,20.50
2018-08-30T07:56:39.733Z,20.40
2018-08-30T07:59:11.374Z,20.40
2018-08-30T08:01:43.357Z,20.40
2018-08-30T08:04:15.175Z,20.40
2018-08-30T08:06:46.758Z,20.50
2018-08-30T08:09:18.399Z,20.50
2018-08-30T08:11:50.301Z,20.40
2018-08-30T08:14:21.599Z,20.40
2018-08-30T08:16:54.432Z,20.40
2018-08-30T08:19:25.595Z,20.40
2018-08-30T08:21:57.593Z,20.50
2018-08-30T08:24:28.991Z,20.50
2018-08-30T08:27:00.849Z,20.50
2018-08-30T08:29:32.519Z,20.50
2018-08-30T08:32:03.457Z,20.40
2018-08-30T08:34:35.456Z,20.40
2018-08-30T08:37:07.835Z,20.50
2018-08-30T08:39:39.618Z,20.40
2018-08-30T08:42:12.218Z,20.50
2018-08-30T08:44:44.356Z,20.40
2018-08-30T08:47:16.692Z,20.40
2018-08-30T08:49:46.494Z,20.40
2018-08-30T08:52:19.436Z,20.50
2018-08-30T08:54:50.895Z,20.40
2018-08-30T08:57:21.815Z,20.40
2018-08-30T08:59:53.368Z,20.30
2018-08-30T09:02:24.721Z,20.20
2018-08-30T09:04:56.684Z,20.20
2018-08-30T09:07:28.772Z,20.10
2018-08-30T09:10:00.915Z,20.00
2018-08-30T09:12:33.183Z,20.00
2018-08-30T09:15:05.116Z,19.90
2018-08-30T09:17:37.909Z,19.80
2018-08-30T09:20:09.881Z,19.80
2018-08-30T09:22:42.221Z,19.80
2018-08-30T09:25:14.001Z,19.80
2018-08-30T09:27:46.145Z,19.80
2018-08-30T09:30:18.105Z,19.80
2018-08-30T09:32:49.675Z,19.70
2018-08-30T09:35:21.492Z,19.80
2018-08-30T09:37:52.872Z,19.80
2018-08-30T09:40:24.349Z,19.80
2018-08-30T09:42:56.285Z,19.70
2018-08-30T09:45:27.711Z,19.70
2018-08-30T09:47:59.384Z,19.70
2018-08-30T09:50:30.806Z,19.60
2018-08-30T09:53:03.063Z,19.50
2018-08-30T09:55:34.884Z,19.50
2018-08-30T09:58:06.245Z,19.50
2018-08-30T10:00:42.420Z,19.50
2018-08-30T10:03:14.560Z,19.50
2018-08-30T10:05:46.539Z,19.50
2018-08-30T10:08:18.159Z,19.40
2018-08-30T10:10:50.659Z,19.40
2018-08-30T10:13:21.780Z,19.40
2018-08-30T10:15:53.648Z,19.40
2018-08-30T10:18:25.720Z,19.40
2018-08-30T10:20:57.900Z,19.40
2018-08-30T10:23:29.693Z,19.40
2018-08-30T10:26:01.125Z,19.40
2018-08-30T10:28:32.926Z,19.40
2018-08-30T10:31:04.627Z,19.40
2018-08-30T10:33:36.366Z,19.30
2018-08-30T10:36:07.987Z,19.30
2018-08-30T10:38:39.384Z,19.30
2018-08-30T10:41:10.567Z,19.20
2018-08-30T10:43:42.771Z,19.20
2018-08-30T10:46:14.765Z,19.30
2018-08-30T10:48:46.947Z,19.30
2018-08-30T10:51:19.446Z,19.30
2018-08-30T10:53:51.326Z,19.30
2018-08-30T10:56:23.323Z,19.40
2018-08-30T10:58:55.284Z,19.50
2018-08-30T11:01:27.254Z,19.50
2018-08-30T11:03:59.434Z,19.60
2018-08-30T11:06:31.155Z,19.60
2018-08-30T11:09:04.174Z,19.60
2018-08-30T11:11:36.134Z,19.60
2018-08-30T11:14:07.894Z,19.70
2018-08-30T11:16:39.276Z,19.70
2018-08-30T11:19:11.134Z,19.70
2018-08-30T11:21:42.435Z,19.60
2018-08-30T11:24:14.415Z,19.60
2018-08-30T11:26:45.975Z,19.70
2018-08-30T11:29:18.542Z,19.70
2018-08-30T11:31:50.714Z,19.70
2018-08-30T11:34:22.554Z,19.80
2018-08-30T11:36:53.913Z,19.80
2018-08-30T11:39:25.820Z,19.90
2018-08-30T11:41:57.345Z,19.90
2018-08-30T11:44:29.180Z,20.00
2018-08-30T11:47:01.121Z,20.00
2018-08-30T11:49:33.601Z,20.00
2018-08-30T11:52:05.592Z,20.00
2018-08-30T11:54:37.301Z,20.00
2018-08-30T11:57:09.471Z,20.10
2018-08-30T11:59:41.110Z,20.10
2018-08-30T12:02:13.610Z,20.00
2018-08-30T12:04:45.070Z,20.00
2018-08-30T12:07:17.082Z,20.10
2018-08-30T12:09:48.718Z,20.20
2018-08-30T12:12:21.086Z,20.30
2018-08-30T12:14:52.529Z,20.40
2018-08-30T12:17:23.909Z,20.40
2018-08-30T12:19:55.828Z,20.50
2018-08-30T12:22:28.615Z,20.40
2018-08-30T12:24:59.929Z,20.40
2018-08-30T12:27:31.444Z,20.30
2018-08-30T12:30:02.874Z,20.30
2018-08-30T12:32:34.939Z,20.40
2018-08-30T12:35:06.558Z,20.50
2018-08-30T12:37:38.043Z,20.50
2018-08-30T12:40:09.703Z,20.40
2018-08-30T12:42:41.653Z,20.40
2018-08-30T12:45:12.668Z,20.40
2018-08-30T12:47:44.699Z,20.40
2018-08-30T12:50:16.127Z,20.40
2018-08-30T12:52:48.872Z,20.40
2018-08-30T12:55:20.214Z,20.30
2018-08-30T12:57:52.198Z,20.40
2018-08-30T13:00:24.146Z,20.40
2018-08-30T13:02:56.212Z,20.40
2018-08-30T13:05:27.907Z,20.40
2018-08-30T13:07:59.600Z,20.40
2018-08-30T13:10:30.908Z,20.40
2018-08-30T13:13:02.232Z,20.30
2018-08-30T13:15:33.986Z,20.30
2018-08-30T13:18:06.362Z,20.10
2018-08-30T13:20:37.905Z,19.90
2018-08-30T13:23:10.192Z,19.90
2018-08-30T13:25:41.370Z,20.00
2018-08-30T13:28:13.246Z,20.10
2018-08-30T13:30:44.704Z,20.10
2018-08-30T13:33:19.909Z,20.10
2018-08-30T13:35:47.918Z,20.20
2018-08-30T13:38:19.684Z,20.30
2018-08-30T13:40:51.511Z,20.30
2018-08-30T13:43:24.207Z,20.30
2018-08-30T13:45:56.421Z,20.30
2018-08-30T13:48:28.342Z,20.40
2018-08-30T13:50:59.606Z,20.30
2018-08-30T13:53:31.580Z,20.30
2018-08-30T13:56:04.587Z,20.40
2018-08-30T13:58:36.447Z,20.40
2018-08-30T14:01:07.730Z,20.40
2018-08-30T14:03:39.323Z,20.50
2018-08-30T14:06:10.507Z,20.60
2018-08-30T14:08:42.865Z,20.50
2018-08-30T14:11:14.741Z,20.50
2018-08-30T14:13:49.655Z,20.50
2018-08-30T14:16:21.842Z,20.50
2018-08-30T14:18:53.314Z,20.40
2018-08-30T14:21:24.933Z,20.40
2018-08-30T14:23:56.969Z,20.40
2018-08-30T14:26:28.764Z,20.40
2018-08-30T14:29:00.066Z,20.40
2018-08-30T14:31:31.624Z,20.40
2018-08-30T14:34:03.861Z,20.50
2018-08-30T14:36:35.709Z,20.50
2018-08-30T14:39:08.869Z,20.50
2018-08-30T14:41:41.739Z,20.40
2018-08-30T14:44:12.881Z,20.50
2018-08-30T14:46:45.040Z,20.40
2018-08-30T14:49:16.871Z,20.40
2018-08-30T14:51:48.740Z,20.40
2018-08-30T14:54:20.015Z,20.40
2018-08-30T14:56:52.041Z,20.40
2018-08-30T14:59:24.039Z,20.40
2018-08-30T15:01:55.136Z,20.40
2018-08-30T15:04:27.273Z,20.50
2018-08-30T15:06:58.487Z,20.50
2018-08-30T15:09:30.950Z,20.60
2018-08-30T15:12:03.259Z,20.60
2018-08-30T15:14:35.347Z,20.60
2018-08-30T15:17:07.497Z,20.60
2018-08-30T15:19:38.892Z,20.60
2018-08-30T15:22:10.887Z,20.60
2018-08-30T15:24:42.688Z,20.70
2018-08-30T15:27:14.838Z,20.70
2018-08-30T15:29:47.670Z,20.70
2018-08-30T15:32:19.348Z,20.80
2018-08-30T15:34:52.245Z,20.70
2018-08-30T15:37:23.687Z,20.80
2018-08-30T15:39:56.491Z,20.80
2018-08-30T15:42:29.466Z,20.80
2018-08-30T15:45:01.545Z,20.80
2018-08-30T15:47:32.905Z,20.80
2018-08-30T15:50:04.966Z,20.70
2018-08-30T15:52:36.826Z,20.70
2018-08-30T15:55:08.585Z,20.70
2018-08-30T15:57:41.188Z,20.70
2018-08-30T16:00:13.966Z,20.70
2018-08-30T16:02:45.486Z,20.70
2018-08-30T16:05:18.003Z,20.70
2018-08-30T16:07:50.126Z,20.60
2018-08-30T16:10:22.151Z,20.60
2018-08-30T16:12:53.851Z,20.60
2018-08-30T16:15:25.646Z,20.60
2018-08-30T16:17:58.584Z,20.50
2018-08-30T16:20:31.405Z,20.60
2018-08-30T16:23:10.261Z,20.60
2018-08-30T16:25:42.106Z,20.50
2018-08-30T16:28:13.984Z,20.40
2018-08-30T16:30:46.140Z,20.40
2018-08-30T16:33:17.767Z,20.40
2018-08-30T16:35:50.053Z,20.40
2018-08-30T16:38:19.965Z,20.40
2018-08-30T16:40:51.924Z,20.40
2018-08-30T16:43:24.006Z,20.50
2018-08-30T16:45:56.205Z,20.50
2018-08-30T16:48:28.386Z,20.50
2018-08-30T16:51:00.428Z,20.50
2018-08-30T16:53:31.966Z,20.50
2018-08-30T16:56:03.982Z,20.40
2018-08-30T16:58:36.004Z,20.40
2018-08-30T17:01:07.820Z,20.40
2018-08-30T17:03:39.665Z,20.40
2018-08-30T17:06:12.071Z,20.30
2018-08-30T17:08:44.373Z,20.30
2018-08-30T17:11:16.165Z,20.20
2018-08-30T17:13:48.505Z,20.20
2018-08-30T17:16:19.946Z,20.20
2018-08-30T17:18:53.045Z,20.20
2018-08-30T17:21:24.366Z,20.20
2018-08-30T17:23:56.165Z,20.20
2018-08-30T17:26:28.225Z,20.10
2018-08-30T17:29:00.947Z,20.10
2018-08-30T17:31:33.588Z,20.10
2018-08-30T17:34:05.485Z,20.10
2018-08-30T17:36:37.185Z,20.00
2018-08-30T17:39:10.724Z,19.90
2018-08-30T17:41:42.486Z,19.90
2018-08-30T17:44:15.185Z,19.90
2018-08-30T17:46:47.313Z,19.90
2018-08-30T17:49:19.285Z,19.90
2018-08-30T17:51:51.165Z,19.80
2018-08-30T17:54:22.925Z,19.80
2018-08-30T17:56:54.106Z,19.80
2018-08-30T17:59:25.905Z,19.80
2018-08-30T18:01:58.260Z,19.80
2018-08-30T18:04:30.185Z,19.70
2018-08-30T18:07:02.347Z,19.70
2018-08-30T18:09:33.784Z,19.70
2018-08-30T18:12:05.742Z,19.70
2018-08-30T18:14:37.445Z,19.70
2018-08-30T18:17:08.664Z,19.70
2018-08-30T18:19:40.385Z,19.70
2018-08-30T18:22:12.913Z,19.70
2018-08-30T18:24:44.948Z,19.70
2018-08-30T18:27:16.526Z,19.70
2018-08-30T18:29:48.604Z,19.60
2018-08-30T18:32:20.386Z,19.60
2018-08-30T18:34:52.184Z,19.60
2018-08-30T18:37:24.385Z,19.60
2018-08-30T18:39:55.626Z,19.60
2018-08-30T18:42:27.911Z,19.60
2018-08-30T18:44:59.445Z,19.60
2018-08-30T18:47:31.606Z,19.60
2018-08-30T18:50:04.586Z,19.60
2018-08-30T18:52:36.624Z,19.60
2018-08-30T18:55:08.585Z,19.60
2018-08-30T18:57:39.905Z,19.60
2018-08-30T19:00:12.365Z,19.60
2018-08-30T19:02:43.733Z,19.70
2018-08-30T19:05:15.899Z,19.60
2018-08-30T19:07:47.625Z,19.60
2018-08-30T19:10:20.126Z,19.50
2018-08-30T19:12:52.165Z,19.50
2018-08-30T19:15:29.505Z,19.50
2018-08-30T19:18:05.405Z,19.40
2018-08-30T19:20:37.693Z,19.40
2018-08-30T19:23:09.605Z,19.50
2018-08-30T19:25:41.665Z,19.50
2018-08-30T19:28:13.408Z,19.50
2018-08-30T19:30:45.565Z,19.50
2018-08-30T19:33:16.945Z,19.50
2018-08-30T19:35:53.171Z,19.50
2018-08-30T19:38:24.889Z,19.40
2018-08-30T19:41:01.505Z,19.30
2018-08-30T19:43:33.746Z,19.30
2018-08-30T19:46:06.287Z,19.30
2018-08-30T19:48:38.386Z,19.30
2018-08-30T19:51:09.886Z,19.30
2018-08-30T19:53:41.906Z,19.40
2018-08-30T19:56:14.665Z,19.30
2018-08-30T19:58:46.145Z,19.30
2018-08-30T20:01:18.028Z,19.30
2018-08-30T20:03:50.247Z,19.30
2018-08-30T20:06:22.947Z,19.30
2018-08-30T20:08:55.227Z,19.20
2018-08-30T20:11:27.004Z,19.30
2018-08-30T20:13:58.686Z,19.20
2018-08-30T20:16:30.525Z,19.10
2018-08-30T20:19:02.125Z,19.10
2018-08-30T20:21:33.885Z,19.10
2018-08-30T20:24:06.125Z,19.20
2018-08-30T20:26:38.292Z,19.20
2018-08-30T20:29:10.187Z,19.20
2018-08-30T20:31:41.524Z,19.20
2018-08-30T20:34:12.025Z,19.20
2018-08-30T20:36:43.864Z,19.20
2018-08-30T20:39:15.345Z,19.20
2018-08-30T20:41:47.245Z,19.20
2018-08-30T20:44:19.345Z,19.20
2018-08-30T20:46:51.984Z,19.20
2018-08-30T20:49:24.204Z,19.10
2018-08-30T20:51:55.924Z,19.20
2018-08-30T20:54:27.624Z,19.10
2018-08-30T20:56:58.925Z,19.10
2018-08-30T20:59:30.926Z,19.00
2018-08-30T21:02:02.817Z,19.10
2018-08-30T21:04:34.784Z,19.10
2018-08-30T21:07:06.486Z,19.10
2018-08-30T21:09:38.445Z,19.00
2018-08-30T21:12:10.064Z,19.00
2018-08-30T21:14:42.906Z,19.00
2018-08-30T21:17:15.124Z,19.00
2018-08-30T21:19:47.186Z,19.00
2018-08-30T21:22:19.330Z,19.00
2018-08-30T21:24:51.566Z,19.10
2018-08-30T21:27:23.465Z,19.10
2018-08-30T21:29:54.925Z,19.10
2018-08-30T21:32:27.005Z,19.10
2018-08-30T21:35:00.088Z,19.10
2018-08-30T21:37:31.686Z,19.10
2018-08-30T21:40:03.725Z,19.10
2018-08-30T21:42:35.546Z,19.10
2018-08-30T21:45:07.344Z,19.10
2018-08-30T21:47:38.966Z,19.00
2018-08-30T21:50:11.568Z,19.00
2018-08-30T21:52:44.824Z,18.90
2018-08-30T21:55:16.825Z,18.90
2018-08-30T21:57:48.392Z,18.90
2018-08-30T22:00:19.865Z,19.00
2018-08-30T22:02:51.281Z,18.90
2018-08-30T22:05:23.164Z,18.90
2018-08-30T22:07:55.244Z,18.80
2018-08-30T22:10:26.785Z,18.90
2018-08-30T22:12:58.765Z,18.80
2018-08-30T22:15:30.284Z,18.90
2018-08-30T22:18:02.405Z,19.00
2018-08-30T22:20:34.119Z,19.00
2018-08-30T22:23:05.472Z,19.00
2018-08-30T22:25:37.180Z,19.00
2018-08-30T22:28:10.260Z,19.00
2018-08-30T22:30:42.960Z,19.00
2018-08-30T22:33:14.419Z,19.00
2018-08-30T22:35:46.228Z,19.00
2018-08-30T22:38:17.520Z,19.10
2018-08-30T22:40:48.723Z,19.10
2018-08-30T22:43:20.539Z,19.20
2018-08-30T22:45:51.740Z,19.10
2018-08-30T22:48:23.579Z,19.00
2018-08-30T22:50:55.639Z,19.10
2018-08-30T22:53:27.744Z,19.10
2018-08-30T22:55:59.660Z,19.00
2018-08-30T22:58:31.199Z,19.00
2018-08-30T23:01:02.515Z,18.90
2018-08-30T23:03:34.459Z,19.00
2018-08-30T23:06:05.879Z,19.00
2018-08-30T23:08:37.526Z,19.00
2018-08-30T23:11:09.219Z,19.00
2018-08-30T23:13:41.559Z,19.00
2018-08-30T23:16:13.164Z,18.90
2018-08-30T23:18:44.779Z,18.90
2018-08-30T23:21:16.320Z,18.90
2018-08-30T23:23:48.394Z,18.90
2018-08-30T23:26:20.339Z,19.00
2018-08-30T23:28:52.259Z,19.00
2018-08-30T23:31:23.768Z,18.90
2018-08-30T23:33:54.919Z,18.90
2018-08-30T23:36:26.779Z,18.90
2018-08-30T23:38:58.482Z,19.00
2018-08-30T23:41:30.719Z,19.00
2018-08-30T23:44:03.319Z,18.90
2018-08-30T23:46:34.279Z,19.00
2018-08-30T23:49:06.486Z,19.00
2018-08-30T23:51:37.919Z,19.00
2018-08-30T23:54:09.939Z,18.90
2018-08-30T23:56:41.120Z,18.90
2018-08-30T23:59:22.699Z,18.90
